sensor_id;sensor_type;location;lat;lon;timestamp;temperature;humidity
60723;DHT22;46574;52.818;6.516;2022-08-30T00:00:52;15.50;99.90
60723;DHT22;46574;52.818;6.516;2022-08-30T00:03:30;15.50;99.90
60723;DHT22;46574;52.818;6.516;2022-08-30T00:05:56;15.50;99.90
60723;DHT22;46574;52.818;6.516;2022-08-30T00:08:22;15.50;99.90
60723;DHT22;46574;52.818;6.516;2022-08-30T00:10:48;15.60;99.90
60723;DHT22;46574;52.818;6.516;2022-08-30T00:13:16;15.60;99.90
60723;DHT22;46574;52.818;6.516;2022-08-30T00:15:43;15.60;99.90
60723;DHT22;46574;52.818;6.516;2022-08-30T00:18:09;15.60;99.90
60723;DHT22;46574;52.818;6.516;2022-08-30T00:20:36;15.60;99.90
60723;DHT22;46574;52.818;6.516;2022-08-30T00:23:04;15.60;99.90
60723;DHT22;46574;52.818;6.516;2022-08-30T00:25:29;15.60;99.90
60723;DHT22;46574;52.818;6.516;2022-08-30T00:27:55;15.60;99.90
60723;DHT22;46574;52.818;6.516;2022-08-30T00:30:21;15.60;99.90
60723;DHT22;46574;52.818;6.516;2022-08-30T00:32:47;15.60;99.90
60723;DHT22;46574;52.818;6.516;2022-08-30T00:35:16;15.60;99.90
60723;DHT22;46574;52.818;6.516;2022-08-30T00:37:42;15.60;99.90
60723;DHT22;46574;52.818;6.516;2022-08-30T00:40:10;15.70;99.90
60723;DHT22;46574;52.818;6.516;2022-08-30T00:42:37;15.70;99.90
60723;DHT22;46574;52.818;6.516;2022-08-30T00:47:40;15.70;99.90
60723;DHT22;46574;52.818;6.516;2022-08-30T00:50:07;15.70;99.90
60723;DHT22;46574;52.818;6.516;2022-08-30T00:52:35;15.70;99.90
60723;DHT22;46574;52.818;6.516;2022-08-30T00:55:03;15.70;99.90
60723;DHT22;46574;52.818;6.516;2022-08-30T00:57:30;15.70;99.90
60723;DHT22;46574;52.818;6.516;2022-08-30T00:59:56;15.70;99.90
60723;DHT22;46574;52.818;6.516;2022-08-30T01:02:23;15.70;99.90
60723;DHT22;46574;52.818;6.516;2022-08-30T01:04:52;15.70;99.90
60723;DHT22;46574;52.818;6.516;2022-08-30T01:07:19;15.70;99.90
60723;DHT22;46574;52.818;6.516;2022-08-30T01:09:45;15.70;99.90
60723;DHT22;46574;52.818;6.516;2022-08-30T01:12:11;15.70;99.90
60723;DHT22;46574;52.818;6.516;2022-08-30T01:14:37;15.70;99.90
60723;DHT22;46574;52.818;6.516;2022-08-30T01:17:04;15.70;99.90
60723;DHT22;46574;52.818;6.516;2022-08-30T01:19:40;15.70;99.90
60723;DHT22;46574;52.818;6.516;2022-08-30T01:24:43;15.70;99.90
60723;DHT22;46574;52.818;6.516;2022-08-30T01:27:11;15.80;99.90
60723;DHT22;46574;52.818;6.516;2022-08-30T01:29:37;15.70;99.90
60723;DHT22;46574;52.818;6.516;2022-08-30T01:32:04;15.70;99.90
60723;DHT22;46574;52.818;6.516;2022-08-30T01:34:30;15.70;99.90
60723;DHT22;46574;52.818;6.516;2022-08-30T01:36:56;15.70;99.90
60723;DHT22;46574;52.818;6.516;2022-08-30T01:39:22;15.70;99.90
60723;DHT22;46574;52.818;6.516;2022-08-30T01:41:47;15.70;99.90
60723;DHT22;46574;52.818;6.516;2022-08-30T01:44:13;15.70;99.90
60723;DHT22;46574;52.818;6.516;2022-08-30T01:46:43;15.70;99.90
60723;DHT22;46574;52.818;6.516;2022-08-30T01:49:13;15.70;99.90
60723;DHT22;46574;52.818;6.516;2022-08-30T01:51:38;15.70;99.90
60723;DHT22;46574;52.818;6.516;2022-08-30T01:54:05;15.60;99.90
60723;DHT22;46574;52.818;6.516;2022-08-30T01:56:31;15.60;99.90
60723;DHT22;46574;52.818;6.516;2022-08-30T01:58:57;15.60;99.90
60723;DHT22;46574;52.818;6.516;2022-08-30T02:01:24;15.50;99.90
60723;DHT22;46574;52.818;6.516;2022-08-30T02:03:51;15.50;99.90
60723;DHT22;46574;52.818;6.516;2022-08-30T02:06:19;15.50;99.90
60723;DHT22;46574;52.818;6.516;2022-08-30T02:08:45;15.50;99.90
60723;DHT22;46574;52.818;6.516;2022-08-30T02:11:11;15.40;99.90
60723;DHT22;46574;52.818;6.516;2022-08-30T02:13:39;15.40;99.90
60723;DHT22;46574;52.818;6.516;2022-08-30T02:16:08;15.40;99.90
60723;DHT22;46574;52.818;6.516;2022-08-30T02:18:35;15.30;99.90
60723;DHT22;46574;52.818;6.516;2022-08-30T02:21:02;15.30;99.90
60723;DHT22;46574;52.818;6.516;2022-08-30T02:23:28;15.30;99.90
60723;DHT22;46574;52.818;6.516;2022-08-30T02:25:54;15.30;99.90
60723;DHT22;46574;52.818;6.516;2022-08-30T02:28:20;15.20;99.90
60723;DHT22;46574;52.818;6.516;2022-08-30T02:30:46;15.20;99.90
60723;DHT22;46574;52.818;6.516;2022-08-30T02:33:12;15.20;99.90
60723;DHT22;46574;52.818;6.516;2022-08-30T02:35:38;15.20;99.90
60723;DHT22;46574;52.818;6.516;2022-08-30T02:38:04;15.20;99.90
60723;DHT22;46574;52.818;6.516;2022-08-30T02:40:30;15.20;99.90
60723;DHT22;46574;52.818;6.516;2022-08-30T02:42:56;15.20;99.90
60723;DHT22;46574;52.818;6.516;2022-08-30T02:45:22;15.30;99.90
60723;DHT22;46574;52.818;6.516;2022-08-30T02:47:47;15.30;99.90
60723;DHT22;46574;52.818;6.516;2022-08-30T02:50:14;15.30;99.90
60723;DHT22;46574;52.818;6.516;2022-08-30T02:52:40;15.30;99.90
60723;DHT22;46574;52.818;6.516;2022-08-30T02:55:06;15.30;99.90
60723;DHT22;46574;52.818;6.516;2022-08-30T02:57:32;15.20;99.90
60723;DHT22;46574;52.818;6.516;2022-08-30T02:59:58;15.20;99.90
60723;DHT22;46574;52.818;6.516;2022-08-30T03:02:24;15.20;99.90
60723;DHT22;46574;52.818;6.516;2022-08-30T03:04:50;15.20;99.90
60723;DHT22;46574;52.818;6.516;2022-08-30T03:07:16;15.10;99.90
60723;DHT22;46574;52.818;6.516;2022-08-30T03:09:42;15.10;99.90
60723;DHT22;46574;52.818;6.516;2022-08-30T03:12:08;15.10;99.90
60723;DHT22;46574;52.818;6.516;2022-08-30T03:14:35;15.00;99.90
60723;DHT22;46574;52.818;6.516;2022-08-30T03:17:05;15.00;99.90
60723;DHT22;46574;52.818;6.516;2022-08-30T03:19:32;14.90;99.90
60723;DHT22;46574;52.818;6.516;2022-08-30T03:21:58;14.90;99.90
60723;DHT22;46574;52.818;6.516;2022-08-30T03:24:24;14.90;99.90
60723;DHT22;46574;52.818;6.516;2022-08-30T03:26:51;14.80;99.90
60723;DHT22;46574;52.818;6.516;2022-08-30T03:29:16;14.80;99.90
60723;DHT22;46574;52.818;6.516;2022-08-30T03:31:42;14.70;99.90
60723;DHT22;46574;52.818;6.516;2022-08-30T03:34:08;14.70;99.90
60723;DHT22;46574;52.818;6.516;2022-08-30T03:36:36;14.60;99.90
60723;DHT22;46574;52.818;6.516;2022-08-30T03:39:04;14.60;99.90
60723;DHT22;46574;52.818;6.516;2022-08-30T03:41:29;14.60;99.90
60723;DHT22;46574;52.818;6.516;2022-08-30T03:43:57;14.50;99.90
60723;DHT22;46574;52.818;6.516;2022-08-30T03:46:23;14.50;99.90
60723;DHT22;46574;52.818;6.516;2022-08-30T03:48:48;14.50;99.90
60723;DHT22;46574;52.818;6.516;2022-08-30T03:51:14;14.40;99.90
60723;DHT22;46574;52.818;6.516;2022-08-30T03:53:40;14.40;99.90
60723;DHT22;46574;52.818;6.516;2022-08-30T03:56:05;14.30;99.90
60723;DHT22;46574;52.818;6.516;2022-08-30T03:58:31;14.30;99.90
60723;DHT22;46574;52.818;6.516;2022-08-30T04:00:57;14.30;99.90
60723;DHT22;46574;52.818;6.516;2022-08-30T04:03:23;14.30;99.90
60723;DHT22;46574;52.818;6.516;2022-08-30T04:05:53;14.20;99.90
60723;DHT22;46574;52.818;6.516;2022-08-30T04:08:19;14.20;99.90
60723;DHT22;46574;52.818;6.516;2022-08-30T04:10:46;14.20;99.90
60723;DHT22;46574;52.818;6.516;2022-08-30T04:13:13;14.20;99.90
60723;DHT22;46574;52.818;6.516;2022-08-30T04:15:39;14.20;99.90
60723;DHT22;46574;52.818;6.516;2022-08-30T04:18:05;14.10;99.90
60723;DHT22;46574;52.818;6.516;2022-08-30T04:20:30;14.10;99.90
60723;DHT22;46574;52.818;6.516;2022-08-30T04:22:56;14.10;99.90
60723;DHT22;46574;52.818;6.516;2022-08-30T04:25:22;14.00;99.90
60723;DHT22;46574;52.818;6.516;2022-08-30T04:27:47;13.90;99.90
60723;DHT22;46574;52.818;6.516;2022-08-30T04:30:15;13.80;99.90
60723;DHT22;46574;52.818;6.516;2022-08-30T04:32:42;13.80;99.90
60723;DHT22;46574;52.818;6.516;2022-08-30T04:35:08;13.70;99.90
60723;DHT22;46574;52.818;6.516;2022-08-30T04:37:34;13.70;99.90
60723;DHT22;46574;52.818;6.516;2022-08-30T04:39:59;13.60;99.90
60723;DHT22;46574;52.818;6.516;2022-08-30T04:42:31;13.60;99.90
60723;DHT22;46574;52.818;6.516;2022-08-30T04:44:58;13.60;99.90
60723;DHT22;46574;52.818;6.516;2022-08-30T04:47:24;13.50;99.90
60723;DHT22;46574;52.818;6.516;2022-08-30T04:49:51;13.50;99.90
60723;DHT22;46574;52.818;6.516;2022-08-30T04:52:17;13.50;99.90
60723;DHT22;46574;52.818;6.516;2022-08-30T04:54:43;13.50;99.90
60723;DHT22;46574;52.818;6.516;2022-08-30T04:57:09;13.50;99.90
60723;DHT22;46574;52.818;6.516;2022-08-30T04:59:35;13.50;99.90
60723;DHT22;46574;52.818;6.516;2022-08-30T05:02:02;13.50;99.90
60723;DHT22;46574;52.818;6.516;2022-08-30T05:04:28;13.50;99.90
60723;DHT22;46574;52.818;6.516;2022-08-30T05:06:53;13.50;99.90
60723;DHT22;46574;52.818;6.516;2022-08-30T05:09:19;13.50;99.90
60723;DHT22;46574;52.818;6.516;2022-08-30T05:11:46;13.50;99.90
60723;DHT22;46574;52.818;6.516;2022-08-30T05:14:12;13.50;99.90
60723;DHT22;46574;52.818;6.516;2022-08-30T05:16:38;13.50;99.90
60723;DHT22;46574;52.818;6.516;2022-08-30T05:19:03;13.50;99.90
60723;DHT22;46574;52.818;6.516;2022-08-30T05:21:29;13.50;99.90
60723;DHT22;46574;52.818;6.516;2022-08-30T05:23:57;13.50;99.90
60723;DHT22;46574;52.818;6.516;2022-08-30T05:26:32;13.50;99.90
60723;DHT22;46574;52.818;6.516;2022-08-30T05:28:59;13.60;99.90
60723;DHT22;46574;52.818;6.516;2022-08-30T05:31:33;13.60;99.90
60723;DHT22;46574;52.818;6.516;2022-08-30T05:33:59;13.60;99.90
60723;DHT22;46574;52.818;6.516;2022-08-30T05:36:27;13.60;99.90
60723;DHT22;46574;52.818;6.516;2022-08-30T05:38:54;13.70;99.90
60723;DHT22;46574;52.818;6.516;2022-08-30T05:41:21;13.70;99.90
60723;DHT22;46574;52.818;6.516;2022-08-30T05:43:47;13.70;99.90
60723;DHT22;46574;52.818;6.516;2022-08-30T05:46:14;13.70;99.90
60723;DHT22;46574;52.818;6.516;2022-08-30T05:48:44;13.70;99.90
60723;DHT22;46574;52.818;6.516;2022-08-30T05:51:16;13.70;99.90
60723;DHT22;46574;52.818;6.516;2022-08-30T05:53:43;13.80;99.90
60723;DHT22;46574;52.818;6.516;2022-08-30T05:56:12;13.80;99.90
60723;DHT22;46574;52.818;6.516;2022-08-30T05:58:39;13.90;99.90
60723;DHT22;46574;52.818;6.516;2022-08-30T06:01:05;13.90;99.90
60723;DHT22;46574;52.818;6.516;2022-08-30T06:03:31;13.90;99.90
60723;DHT22;46574;52.818;6.516;2022-08-30T06:05:58;14.00;99.90
60723;DHT22;46574;52.818;6.516;2022-08-30T06:08:24;14.00;99.90
60723;DHT22;46574;52.818;6.516;2022-08-30T06:10:50;14.00;99.90
60723;DHT22;46574;52.818;6.516;2022-08-30T06:13:16;14.10;99.90
60723;DHT22;46574;52.818;6.516;2022-08-30T06:15:42;14.20;99.90
60723;DHT22;46574;52.818;6.516;2022-08-30T06:18:11;14.20;99.90
60723;DHT22;46574;52.818;6.516;2022-08-30T06:20:44;14.20;99.90
60723;DHT22;46574;52.818;6.516;2022-08-30T06:23:11;14.30;99.90
60723;DHT22;46574;52.818;6.516;2022-08-30T06:25:37;14.40;99.90
60723;DHT22;46574;52.818;6.516;2022-08-30T06:28:05;14.40;99.90
60723;DHT22;46574;52.818;6.516;2022-08-30T06:30:32;14.50;99.90
60723;DHT22;46574;52.818;6.516;2022-08-30T06:32:58;14.60;99.90
60723;DHT22;46574;52.818;6.516;2022-08-30T06:35:25;14.60;99.90
60723;DHT22;46574;52.818;6.516;2022-08-30T06:37:51;14.70;99.90
60723;DHT22;46574;52.818;6.516;2022-08-30T06:40:16;14.70;99.90
60723;DHT22;46574;52.818;6.516;2022-08-30T06:42:45;14.80;99.90
60723;DHT22;46574;52.818;6.516;2022-08-30T06:45:10;14.90;99.90
60723;DHT22;46574;52.818;6.516;2022-08-30T06:47:36;15.00;99.90
60723;DHT22;46574;52.818;6.516;2022-08-30T06:50:02;15.00;99.90
60723;DHT22;46574;52.818;6.516;2022-08-30T06:52:28;15.10;99.90
60723;DHT22;46574;52.818;6.516;2022-08-30T06:54:54;15.20;99.90
60723;DHT22;46574;52.818;6.516;2022-08-30T06:57:22;15.30;99.90
60723;DHT22;46574;52.818;6.516;2022-08-30T06:59:48;15.40;99.90
60723;DHT22;46574;52.818;6.516;2022-08-30T07:02:13;15.40;99.90
60723;DHT22;46574;52.818;6.516;2022-08-30T07:04:39;15.50;99.90
60723;DHT22;46574;52.818;6.516;2022-08-30T07:07:09;15.60;99.90
60723;DHT22;46574;52.818;6.516;2022-08-30T07:09:35;15.70;99.90
60723;DHT22;46574;52.818;6.516;2022-08-30T07:12:11;15.80;99.90
60723;DHT22;46574;52.818;6.516;2022-08-30T07:14:37;15.90;99.90
60723;DHT22;46574;52.818;6.516;2022-08-30T07:17:05;16.00;99.90
60723;DHT22;46574;52.818;6.516;2022-08-30T07:19:53;16.10;99.90
60723;DHT22;46574;52.818;6.516;2022-08-30T07:22:19;16.20;99.90
60723;DHT22;46574;52.818;6.516;2022-08-30T07:24:47;16.30;99.90
60723;DHT22;46574;52.818;6.516;2022-08-30T07:27:13;16.40;99.90
60723;DHT22;46574;52.818;6.516;2022-08-30T07:29:39;16.50;99.90
60723;DHT22;46574;52.818;6.516;2022-08-30T07:32:05;16.50;99.90
60723;DHT22;46574;52.818;6.516;2022-08-30T07:34:31;16.70;99.90
60723;DHT22;46574;52.818;6.516;2022-08-30T07:36:57;16.80;99.90
60723;DHT22;46574;52.818;6.516;2022-08-30T07:39:23;16.90;99.90
60723;DHT22;46574;52.818;6.516;2022-08-30T07:41:49;16.90;99.90
60723;DHT22;46574;52.818;6.516;2022-08-30T07:44:15;17.00;99.90
60723;DHT22;46574;52.818;6.516;2022-08-30T07:46:41;17.10;99.90
60723;DHT22;46574;52.818;6.516;2022-08-30T07:49:08;17.20;99.90
60723;DHT22;46574;52.818;6.516;2022-08-30T07:51:35;17.30;99.90
60723;DHT22;46574;52.818;6.516;2022-08-30T07:54:01;17.40;99.90
60723;DHT22;46574;52.818;6.516;2022-08-30T07:56:27;17.40;99.90
60723;DHT22;46574;52.818;6.516;2022-08-30T07:58:53;17.60;99.90
60723;DHT22;46574;52.818;6.516;2022-08-30T08:01:20;17.60;99.90
60723;DHT22;46574;52.818;6.516;2022-08-30T08:03:46;17.70;99.90
60723;DHT22;46574;52.818;6.516;2022-08-30T08:06:16;17.80;99.90
60723;DHT22;46574;52.818;6.516;2022-08-30T08:08:42;17.80;99.90
60723;DHT22;46574;52.818;6.516;2022-08-30T08:11:12;17.90;99.90
60723;DHT22;46574;52.818;6.516;2022-08-30T08:13:40;18.00;99.90
60723;DHT22;46574;52.818;6.516;2022-08-30T08:16:06;18.10;99.90
60723;DHT22;46574;52.818;6.516;2022-08-30T08:18:32;18.20;99.90
60723;DHT22;46574;52.818;6.516;2022-08-30T08:20:59;18.30;99.90
60723;DHT22;46574;52.818;6.516;2022-08-30T08:23:25;18.30;99.90
60723;DHT22;46574;52.818;6.516;2022-08-30T08:25:51;18.40;99.90
60723;DHT22;46574;52.818;6.516;2022-08-30T08:28:17;18.50;99.90
60723;DHT22;46574;52.818;6.516;2022-08-30T08:30:43;18.50;99.90
60723;DHT22;46574;52.818;6.516;2022-08-30T08:33:08;18.60;99.90
60723;DHT22;46574;52.818;6.516;2022-08-30T08:35:35;18.70;99.90
60723;DHT22;46574;52.818;6.516;2022-08-30T08:38:01;18.70;99.90
60723;DHT22;46574;52.818;6.516;2022-08-30T08:40:27;18.70;99.90
60723;DHT22;46574;52.818;6.516;2022-08-30T08:43:10;18.80;99.90
60723;DHT22;46574;52.818;6.516;2022-08-30T08:50:55;19.10;99.90
60723;DHT22;46574;52.818;6.516;2022-08-30T08:53:39;19.20;99.90
60723;DHT22;46574;52.818;6.516;2022-08-30T08:56:12;19.30;99.90
60723;DHT22;46574;52.818;6.516;2022-08-30T08:58:49;19.50;99.90
60723;DHT22;46574;52.818;6.516;2022-08-30T09:01:18;19.50;99.90
60723;DHT22;46574;52.818;6.516;2022-08-30T09:03:45;19.70;99.90
60723;DHT22;46574;52.818;6.516;2022-08-30T09:06:32;19.90;99.90
60723;DHT22;46574;52.818;6.516;2022-08-30T09:09:03;20.10;99.90
60723;DHT22;46574;52.818;6.516;2022-08-30T09:11:33;20.20;99.90
60723;DHT22;46574;52.818;6.516;2022-08-30T09:13:59;20.40;99.90
60723;DHT22;46574;52.818;6.516;2022-08-30T09:22:23;20.80;94.90
60723;DHT22;46574;52.818;6.516;2022-08-30T09:25:01;20.90;99.90
60723;DHT22;46574;52.818;6.516;2022-08-30T09:27:31;21.00;91.80
60723;DHT22;46574;52.818;6.516;2022-08-30T09:30:06;21.00;97.90
60723;DHT22;46574;52.818;6.516;2022-08-30T09:32:43;21.00;95.70
60723;DHT22;46574;52.818;6.516;2022-08-30T09:35:12;21.10;98.40
60723;DHT22;46574;52.818;6.516;2022-08-30T09:37:55;21.20;91.80
60723;DHT22;46574;52.818;6.516;2022-08-30T09:40:27;21.40;78.20
60723;DHT22;46574;52.818;6.516;2022-08-30T09:43:01;21.50;79.80
60723;DHT22;46574;52.818;6.516;2022-08-30T09:45:31;21.60;72.80
60723;DHT22;46574;52.818;6.516;2022-08-30T09:47:57;21.60;70.00
60723;DHT22;46574;52.818;6.516;2022-08-30T09:50:23;21.50;71.40
60723;DHT22;46574;52.818;6.516;2022-08-30T09:53:14;21.60;71.30
60723;DHT22;46574;52.818;6.516;2022-08-30T09:55:48;21.70;66.70
60723;DHT22;46574;52.818;6.516;2022-08-30T10:00:56;21.80;67.30
60723;DHT22;46574;52.818;6.516;2022-08-30T10:03:48;21.80;69.00
60723;DHT22;46574;52.818;6.516;2022-08-30T10:06:51;21.90;68.30
60723;DHT22;46574;52.818;6.516;2022-08-30T10:09:32;21.80;63.50
60723;DHT22;46574;52.818;6.516;2022-08-30T10:12:29;21.90;69.30
60723;DHT22;46574;52.818;6.516;2022-08-30T10:15:27;22.10;66.70
60723;DHT22;46574;52.818;6.516;2022-08-30T10:18:11;22.10;65.00
60723;DHT22;46574;52.818;6.516;2022-08-30T10:23:26;22.20;65.10
60723;DHT22;46574;52.818;6.516;2022-08-30T10:26:13;22.20;64.90
60723;DHT22;46574;52.818;6.516;2022-08-30T10:28:43;22.30;63.50
60723;DHT22;46574;52.818;6.516;2022-08-30T10:31:19;22.40;61.60
60723;DHT22;46574;52.818;6.516;2022-08-30T10:33:52;22.50;65.20
60723;DHT22;46574;52.818;6.516;2022-08-30T10:36:26;22.50;62.50
60723;DHT22;46574;52.818;6.516;2022-08-30T10:38:55;22.60;62.70
60723;DHT22;46574;52.818;6.516;2022-08-30T10:41:41;22.40;63.50
60723;DHT22;46574;52.818;6.516;2022-08-30T10:44:26;22.50;63.10
60723;DHT22;46574;52.818;6.516;2022-08-30T10:47:07;22.50;62.10
60723;DHT22;46574;52.818;6.516;2022-08-30T10:49:38;22.40;60.80
60723;DHT22;46574;52.818;6.516;2022-08-30T10:54:41;22.40;63.20
60723;DHT22;46574;52.818;6.516;2022-08-30T10:57:08;22.50;62.60
60723;DHT22;46574;52.818;6.516;2022-08-30T10:59:36;22.30;62.20
60723;DHT22;46574;52.818;6.516;2022-08-30T11:13:25;22.10;60.70
60723;DHT22;46574;52.818;6.516;2022-08-30T11:16:07;22.10;61.50
60723;DHT22;46574;52.818;6.516;2022-08-30T11:18:46;22.00;61.60
60723;DHT22;46574;52.818;6.516;2022-08-30T11:21:22;21.90;61.40
60723;DHT22;46574;52.818;6.516;2022-08-30T11:29:31;21.90;57.70
60723;DHT22;46574;52.818;6.516;2022-08-30T11:32:20;21.90;60.60
60723;DHT22;46574;52.818;6.516;2022-08-30T11:37:36;21.90;61.90
60723;DHT22;46574;52.818;6.516;2022-08-30T11:47:59;22.00;62.10
60723;DHT22;46574;52.818;6.516;2022-08-30T11:53:24;22.00;61.00
60723;DHT22;46574;52.818;6.516;2022-08-30T11:56:27;21.90;60.00
60723;DHT22;46574;52.818;6.516;2022-08-30T11:59:20;22.00;60.00
60723;DHT22;46574;52.818;6.516;2022-08-30T12:01:49;21.90;59.20
60723;DHT22;46574;52.818;6.516;2022-08-30T12:06:53;21.90;61.60
60723;DHT22;46574;52.818;6.516;2022-08-30T12:12:04;22.00;59.40
60723;DHT22;46574;52.818;6.516;2022-08-30T12:14:38;22.00;59.40
60723;DHT22;46574;52.818;6.516;2022-08-30T12:17:17;22.10;59.80
60723;DHT22;46574;52.818;6.516;2022-08-30T12:20:03;22.10;58.80
60723;DHT22;46574;52.818;6.516;2022-08-30T12:22:29;22.00;59.10
60723;DHT22;46574;52.818;6.516;2022-08-30T12:25:03;22.00;59.30
60723;DHT22;46574;52.818;6.516;2022-08-30T12:27:37;22.00;60.50
60723;DHT22;46574;52.818;6.516;2022-08-30T12:30:06;22.00;59.80
60723;DHT22;46574;52.818;6.516;2022-08-30T12:32:33;22.00;58.50
60723;DHT22;46574;52.818;6.516;2022-08-30T12:35:04;21.90;59.30
60723;DHT22;46574;52.818;6.516;2022-08-30T12:37:36;22.00;60.00
60723;DHT22;46574;52.818;6.516;2022-08-30T12:40:17;22.00;60.20
60723;DHT22;46574;52.818;6.516;2022-08-30T12:42:58;22.10;60.00
60723;DHT22;46574;52.818;6.516;2022-08-30T12:45:30;22.10;60.80
60723;DHT22;46574;52.818;6.516;2022-08-30T12:48:00;22.20;60.80
60723;DHT22;46574;52.818;6.516;2022-08-30T12:50:36;22.20;59.70
60723;DHT22;46574;52.818;6.516;2022-08-30T12:53:05;22.30;59.40
60723;DHT22;46574;52.818;6.516;2022-08-30T12:55:34;22.30;59.20
60723;DHT22;46574;52.818;6.516;2022-08-30T12:58:08;22.40;59.40
60723;DHT22;46574;52.818;6.516;2022-08-30T13:00:42;22.30;59.50
60723;DHT22;46574;52.818;6.516;2022-08-30T13:03:32;22.30;59.10
60723;DHT22;46574;52.818;6.516;2022-08-30T13:05:58;22.40;60.20
60723;DHT22;46574;52.818;6.516;2022-08-30T13:08:48;22.40;59.30
60723;DHT22;46574;52.818;6.516;2022-08-30T13:13:48;22.50;58.00
60723;DHT22;46574;52.818;6.516;2022-08-30T13:21:32;22.40;58.40
60723;DHT22;46574;52.818;6.516;2022-08-30T13:24:04;22.40;59.90
60723;DHT22;46574;52.818;6.516;2022-08-30T13:26:33;22.50;60.00
60723;DHT22;46574;52.818;6.516;2022-08-30T13:29:02;22.50;58.60
60723;DHT22;46574;52.818;6.516;2022-08-30T13:31:29;22.50;58.80
60723;DHT22;46574;52.818;6.516;2022-08-30T13:33:55;22.50;59.30
60723;DHT22;46574;52.818;6.516;2022-08-30T13:36:32;22.50;58.60
60723;DHT22;46574;52.818;6.516;2022-08-30T13:38:58;22.40;59.30
60723;DHT22;46574;52.818;6.516;2022-08-30T13:41:25;22.40;59.60
60723;DHT22;46574;52.818;6.516;2022-08-30T13:43:52;22.40;59.60
60723;DHT22;46574;52.818;6.516;2022-08-30T13:46:19;22.40;59.70
60723;DHT22;46574;52.818;6.516;2022-08-30T13:48:45;22.40;59.10
60723;DHT22;46574;52.818;6.516;2022-08-30T13:51:11;22.40;59.70
60723;DHT22;46574;52.818;6.516;2022-08-30T13:53:38;22.40;59.40
60723;DHT22;46574;52.818;6.516;2022-08-30T13:56:04;22.40;59.70
60723;DHT22;46574;52.818;6.516;2022-08-30T13:58:30;22.30;60.20
60723;DHT22;46574;52.818;6.516;2022-08-30T14:00:56;22.30;60.30
60723;DHT22;46574;52.818;6.516;2022-08-30T14:03:23;22.40;60.80
60723;DHT22;46574;52.818;6.516;2022-08-30T14:05:49;22.50;60.90
60723;DHT22;46574;52.818;6.516;2022-08-30T14:08:18;22.50;61.30
60723;DHT22;46574;52.818;6.516;2022-08-30T14:10:44;22.60;61.60
60723;DHT22;46574;52.818;6.516;2022-08-30T14:13:10;22.70;60.60
60723;DHT22;46574;52.818;6.516;2022-08-30T14:15:37;22.70;60.30
60723;DHT22;46574;52.818;6.516;2022-08-30T14:18:04;22.70;59.10
60723;DHT22;46574;52.818;6.516;2022-08-30T14:20:29;22.60;58.60
60723;DHT22;46574;52.818;6.516;2022-08-30T14:22:55;22.60;59.10
60723;DHT22;46574;52.818;6.516;2022-08-30T14:25:21;22.60;59.20
60723;DHT22;46574;52.818;6.516;2022-08-30T14:27:46;22.60;59.50
60723;DHT22;46574;52.818;6.516;2022-08-30T14:30:12;22.70;60.60
60723;DHT22;46574;52.818;6.516;2022-08-30T14:32:38;22.70;60.50
60723;DHT22;46574;52.818;6.516;2022-08-30T14:35:04;22.70;61.00
60723;DHT22;46574;52.818;6.516;2022-08-30T14:37:30;22.70;60.60
60723;DHT22;46574;52.818;6.516;2022-08-30T14:39:56;22.70;60.20
60723;DHT22;46574;52.818;6.516;2022-08-30T14:42:21;22.60;60.40
60723;DHT22;46574;52.818;6.516;2022-08-30T14:44:47;22.60;60.70
60723;DHT22;46574;52.818;6.516;2022-08-30T14:47:13;22.50;60.50
60723;DHT22;46574;52.818;6.516;2022-08-30T14:49:38;22.50;61.30
60723;DHT22;46574;52.818;6.516;2022-08-30T14:52:04;22.70;60.30
60723;DHT22;46574;52.818;6.516;2022-08-30T14:54:30;22.70;60.30
60723;DHT22;46574;52.818;6.516;2022-08-30T14:56:57;22.70;60.60
60723;DHT22;46574;52.818;6.516;2022-08-30T14:59:24;22.70;60.30
60723;DHT22;46574;52.818;6.516;2022-08-30T15:01:50;22.70;60.00
60723;DHT22;46574;52.818;6.516;2022-08-30T15:04:16;22.70;60.80
60723;DHT22;46574;52.818;6.516;2022-08-30T15:06:44;22.80;61.10
60723;DHT22;46574;52.818;6.516;2022-08-30T15:09:11;22.80;61.60
60723;DHT22;46574;52.818;6.516;2022-08-30T15:11:37;22.70;61.90
60723;DHT22;46574;52.818;6.516;2022-08-30T15:14:04;22.40;62.90
60723;DHT22;46574;52.818;6.516;2022-08-30T15:16:33;22.30;63.20
60723;DHT22;46574;52.818;6.516;2022-08-30T15:18:59;22.10;63.80
60723;DHT22;46574;52.818;6.516;2022-08-30T15:21:27;21.90;64.90
60723;DHT22;46574;52.818;6.516;2022-08-30T15:23:55;21.90;65.50
60723;DHT22;46574;52.818;6.516;2022-08-30T15:26:21;21.90;66.10
60723;DHT22;46574;52.818;6.516;2022-08-30T15:28:47;22.10;67.60
60723;DHT22;46574;52.818;6.516;2022-08-30T15:31:13;22.30;66.90
60723;DHT22;46574;52.818;6.516;2022-08-30T15:33:39;22.50;66.30
60723;DHT22;46574;52.818;6.516;2022-08-30T15:36:06;22.70;64.80
60723;DHT22;46574;52.818;6.516;2022-08-30T15:38:32;22.60;63.60
60723;DHT22;46574;52.818;6.516;2022-08-30T15:41:01;22.50;63.60
60723;DHT22;46574;52.818;6.516;2022-08-30T15:43:28;22.30;64.40
60723;DHT22;46574;52.818;6.516;2022-08-30T15:45:54;22.20;65.30
60723;DHT22;46574;52.818;6.516;2022-08-30T15:48:21;22.10;65.80
60723;DHT22;46574;52.818;6.516;2022-08-30T15:50:55;22.00;66.10
60723;DHT22;46574;52.818;6.516;2022-08-30T15:53:21;22.10;67.90
60723;DHT22;46574;52.818;6.516;2022-08-30T15:55:47;22.20;67.60
60723;DHT22;46574;52.818;6.516;2022-08-30T15:58:12;22.30;67.40
60723;DHT22;46574;52.818;6.516;2022-08-30T16:00:38;22.40;66.40
60723;DHT22;46574;52.818;6.516;2022-08-30T16:03:05;22.50;65.50
60723;DHT22;46574;52.818;6.516;2022-08-30T16:05:30;22.40;64.20
60723;DHT22;46574;52.818;6.516;2022-08-30T16:07:56;22.40;65.00
60723;DHT22;46574;52.818;6.516;2022-08-30T16:10:22;22.50;65.10
60723;DHT22;46574;52.818;6.516;2022-08-30T16:12:48;22.50;66.00
60723;DHT22;46574;52.818;6.516;2022-08-30T16:15:14;22.50;66.80
60723;DHT22;46574;52.818;6.516;2022-08-30T16:17:40;22.50;66.70
60723;DHT22;46574;52.818;6.516;2022-08-30T16:20:07;22.50;67.00
60723;DHT22;46574;52.818;6.516;2022-08-30T16:22:33;22.60;67.40
60723;DHT22;46574;52.818;6.516;2022-08-30T16:24:59;22.60;66.90
60723;DHT22;46574;52.818;6.516;2022-08-30T16:27:25;22.70;66.60
60723;DHT22;46574;52.818;6.516;2022-08-30T16:29:50;22.80;66.80
60723;DHT22;46574;52.818;6.516;2022-08-30T16:32:17;22.90;67.10
60723;DHT22;46574;52.818;6.516;2022-08-30T16:34:43;23.00;67.00
60723;DHT22;46574;52.818;6.516;2022-08-30T16:37:08;23.10;67.10
60723;DHT22;46574;52.818;6.516;2022-08-30T16:39:34;23.10;66.90
60723;DHT22;46574;52.818;6.516;2022-08-30T16:41:59;23.10;66.10
60723;DHT22;46574;52.818;6.516;2022-08-30T16:44:27;23.00;66.40
60723;DHT22;46574;52.818;6.516;2022-08-30T16:46:53;22.80;67.00